sensor_id;sensor_type;location;lat;lon;timestamp;pressure;altitude;pressure_sealevel;temperature;humidity
6208;BME280;3137;51.550;7.060;2023-08-12T00:01:35;101463.91;;;20.32;90.00
6208;BME280;3137;51.550;7.060;2023-08-12T00:04:01;101467.63;;;20.31;89.64
6208;BME280;3137;51.550;7.060;2023-08-12T00:06:28;101467.63;;;20.31;89.67
6208;BME280;3137;51.550;7.060;2023-08-12T00:08:55;101461.38;;;20.30;89.96
6208;BME280;3137;51.550;7.060;2023-08-12T00:11:21;101460.72;;;20.28;89.58
6208;BME280;3137;51.550;7.060;2023-08-12T00:13:48;101466.13;;;20.28;89.59
6208;BME280;3137;51.550;7.060;2023-08-12T00:16:14;101451.06;;;20.26;89.50
6208;BME280;3137;51.550;7.060;2023-08-12T00:18:41;101461.09;;;20.25;89.88
6208;BME280;3137;51.550;7.060;2023-08-12T00:21:07;101455.66;;;20.25;89.79
6208;BME280;3137;51.550;7.060;2023-08-12T00:23:40;101460.22;;;20.25;89.84
6208;BME280;3137;51.550;7.060;2023-08-12T00:26:07;101457.53;;;20.25;90.01
6208;BME280;3137;51.550;7.060;2023-08-12T00:28:34;101452.94;;;20.25;89.65
6208;BME280;3137;51.550;7.060;2023-08-12T00:31:00;101452.09;;;20.25;89.96
6208;BME280;3137;51.550;7.060;2023-08-12T00:33:27;101457.53;;;20.25;89.47
6208;BME280;3137;51.550;7.060;2023-08-12T00:35:53;101458.38;;;20.25;90.03
6208;BME280;3137;51.550;7.060;2023-08-12T00:38:20;101453.34;;;20.22;89.68
6208;BME280;3137;51.550;7.060;2023-08-12T00:40:47;101442.47;;;20.22;89.72
6208;BME280;3137;51.550;7.060;2023-08-12T00:43:14;101441.81;;;20.20;90.16
6208;BME280;3137;51.550;7.060;2023-08-12T00:45:40;101452.31;;;20.23;89.62
6208;BME280;3137;51.550;7.060;2023-08-12T00:48:08;101445.72;;;20.32;89.09
6208;BME280;3137;51.550;7.060;2023-08-12T00:50:39;101450.22;;;20.25;89.77
6208;BME280;3137;51.550;7.060;2023-08-12T00:53:06;101441.00;;;20.20;89.84
6208;BME280;3137;51.550;7.060;2023-08-12T00:55:35;101435.94;;;20.17;90.16
6208;BME280;3137;51.550;7.060;2023-08-12T00:58:02;101434.91;;;20.18;89.88
6208;BME280;3137;51.550;7.060;2023-08-12T01:00:31;101432.38;;;20.16;90.18
6208;BME280;3137;51.550;7.060;2023-08-12T01:03:01;101440.34;;;20.18;89.87
6208;BME280;3137;51.550;7.060;2023-08-12T01:05:29;101429.88;;;20.15;89.89
6208;BME280;3137;51.550;7.060;2023-08-12T01:07:56;101430.72;;;20.15;90.41
6208;BME280;3137;51.550;7.060;2023-08-12T01:10:24;101423.63;;;20.14;90.21
6208;BME280;3137;51.550;7.060;2023-08-12T01:13:19;101414.63;;;20.14;90.09
6208;BME280;3137;51.550;7.060;2023-08-12T01:15:53;101418.38;;;20.13;90.08
6208;BME280;3137;51.550;7.060;2023-08-12T01:18:24;101417.34;;;20.14;90.45
6208;BME280;3137;51.550;7.060;2023-08-12T01:20:52;101420.25;;;20.12;90.39
6208;BME280;3137;51.550;7.060;2023-08-12T01:23:19;101420.47;;;20.11;89.92
6208;BME280;3137;51.550;7.060;2023-08-12T01:25:46;101419.63;;;20.10;90.23
6208;BME280;3137;51.550;7.060;2023-08-12T01:28:13;101423.81;;;20.13;90.14
6208;BME280;3137;51.550;7.060;2023-08-12T01:30:47;101420.47;;;20.11;90.14
6208;BME280;3137;51.550;7.060;2023-08-12T01:33:28;101416.25;;;20.08;90.14
6208;BME280;3137;51.550;7.060;2023-08-12T01:36:09;101417.09;;;20.08;90.03
6208;BME280;3137;51.550;7.060;2023-08-12T01:38:39;101401.22;;;20.05;90.35
6208;BME280;3137;51.550;7.060;2023-08-12T01:41:08;101399.53;;;20.04;90.37
6208;BME280;3137;51.550;7.060;2023-08-12T01:43:35;101397.84;;;20.03;90.72
6208;BME280;3137;51.550;7.060;2023-08-12T01:46:02;101391.78;;;20.01;90.52
6208;BME280;3137;51.550;7.060;2023-08-12T01:48:29;101391.78;;;20.01;90.24
6208;BME280;3137;51.550;7.060;2023-08-12T01:50:55;101394.91;;;19.98;90.79
6208;BME280;3137;51.550;7.060;2023-08-12T01:53:22;101391.13;;;19.99;90.24
6208;BME280;3137;51.550;7.060;2023-08-12T01:55:49;101393.84;;;19.99;91.11
6208;BME280;3137;51.550;7.060;2023-08-12T01:58:17;101392.63;;;20.02;90.31
6208;BME280;3137;51.550;7.060;2023-08-12T02:00:43;101394.50;;;20.01;90.66
6208;BME280;3137;51.550;7.060;2023-08-12T02:03:10;101395.53;;;20.00;90.66
6208;BME280;3137;51.550;7.060;2023-08-12T02:05:36;101390.09;;;20.00;91.13
6208;BME280;3137;51.550;7.060;2023-08-12T02:08:07;101390.94;;;20.01;90.70
6208;BME280;3137;51.550;7.060;2023-08-12T02:10:34;101391.78;;;20.01;90.97
6208;BME280;3137;51.550;7.060;2023-08-12T02:13:00;101386.13;;;20.03;91.11
6208;BME280;3137;51.550;7.060;2023-08-12T02:15:29;101380.69;;;20.03;90.89
6208;BME280;3137;51.550;7.060;2023-08-12T02:17:55;101386.78;;;20.05;91.07
6208;BME280;3137;51.550;7.060;2023-08-12T02:20:22;101386.59;;;20.06;91.03
6208;BME280;3137;51.550;7.060;2023-08-12T02:22:48;101377.63;;;20.06;90.99
6208;BME280;3137;51.550;7.060;2023-08-12T02:25:15;101369.47;;;20.06;91.08
6208;BME280;3137;51.550;7.060;2023-08-12T02:27:42;101369.25;;;20.07;91.46
6208;BME280;3137;51.550;7.060;2023-08-12T02:30:08;101374.91;;;20.06;91.71
6208;BME280;3137;51.550;7.060;2023-08-12T02:32:35;101369.47;;;20.06;91.15
6208;BME280;3137;51.550;7.060;2023-08-12T02:35:03;101360.28;;;20.07;91.33
6208;BME280;3137;51.550;7.060;2023-08-12T02:37:29;101356.94;;;20.05;91.44
6208;BME280;3137;51.550;7.060;2023-08-12T02:39:56;101352.34;;;20.05;91.76
6208;BME280;3137;51.550;7.060;2023-08-12T02:42:22;101357.13;;;20.03;91.65
6208;BME280;3137;51.550;7.060;2023-08-12T02:44:49;101354.41;;;20.03;91.70
6208;BME280;3137;51.550;7.060;2023-08-12T02:47:15;101347.50;;;20.01;91.32
6208;BME280;3137;51.550;7.060;2023-08-12T02:49:42;101345.63;;;20.01;91.43
6208;BME280;3137;51.550;7.060;2023-08-12T02:52:09;101355.47;;;20.02;91.66
6208;BME280;3137;51.550;7.060;2023-08-12T02:54:36;101350.84;;;20.03;91.98
6208;BME280;3137;51.550;7.060;2023-08-12T02:57:02;101346.47;;;20.02;91.54
6208;BME280;3137;51.550;7.060;2023-08-12T02:59:29;101341.66;;;20.04;91.65
6208;BME280;3137;51.550;7.060;2023-08-12T03:01:56;101333.94;;;20.01;92.06
6208;BME280;3137;51.550;7.060;2023-08-12T03:04:22;101336.22;;;19.97;92.32
6208;BME280;3137;51.550;7.060;2023-08-12T03:06:49;101332.00;;;19.95;92.02
6208;BME280;3137;51.550;7.060;2023-08-12T03:09:15;101330.13;;;19.95;92.53
6208;BME280;3137;51.550;7.060;2023-08-12T03:11:43;101327.22;;;19.97;92.41
6208;BME280;3137;51.550;7.060;2023-08-12T03:14:12;101324.50;;;19.97;92.20
6208;BME280;3137;51.550;7.060;2023-08-12T03:16:38;101327.84;;;19.99;92.30
6208;BME280;3137;51.550;7.060;2023-08-12T03:19:05;101327.66;;;20.00;92.12
6208;BME280;3137;51.550;7.060;2023-08-12T03:21:32;101317.47;;;20.02;92.47
6208;BME280;3137;51.550;7.060;2023-08-12T03:24:00;101319.34;;;20.02;92.54
6208;BME280;3137;51.550;7.060;2023-08-12T03:26:28;101318.28;;;20.03;92.43
6208;BME280;3137;51.550;7.060;2023-08-12T03:28:56;101310.53;;;20.00;92.06
6208;BME280;3137;51.550;7.060;2023-08-12T03:31:23;101314.94;;;20.01;92.33
6208;BME280;3137;51.550;7.060;2023-08-12T03:33:51;101312.41;;;19.99;92.54
6208;BME280;3137;51.550;7.060;2023-08-12T03:36:18;101315.97;;;20.00;92.54
6208;BME280;3137;51.550;7.060;2023-08-12T03:38:45;101309.50;;;20.01;92.64
6208;BME280;3137;51.550;7.060;2023-08-12T03:41:16;101311.38;;;20.00;92.62
6208;BME280;3137;51.550;7.060;2023-08-12T03:43:43;101305.09;;;20.00;92.55
6208;BME280;3137;51.550;7.060;2023-08-12T03:46:10;101301.38;;;20.01;91.96
6208;BME280;3137;51.550;7.060;2023-08-12T03:48:37;101302.19;;;20.01;92.01
6208;BME280;3137;51.550;7.060;2023-08-12T03:51:03;101304.25;;;19.99;92.31
6208;BME280;3137;51.550;7.060;2023-08-12T03:53:30;101300.53;;;20.00;92.05
6208;BME280;3137;51.550;7.060;2023-08-12T03:55:56;101305.09;;;20.00;92.48
6208;BME280;3137;51.550;7.060;2023-08-12T03:58:23;101305.75;;;20.02;92.13
6208;BME280;3137;51.550;7.060;2023-08-12T04:00:49;101300.53;;;20.00;92.41
6208;BME280;3137;51.550;7.060;2023-08-12T04:03:16;101296.97;;;20.00;92.45
6208;BME280;3137;51.550;7.060;2023-08-12T04:05:50;101289.66;;;20.00;92.48
6208;BME280;3137;51.550;7.060;2023-08-12T04:08:20;101298.47;;;20.02;92.33
6208;BME280;3137;51.550;7.060;2023-08-12T04:10:47;101291.34;;;20.01;92.67
6208;BME280;3137;51.550;7.060;2023-08-12T04:13:14;101296.78;;;20.01;92.33
6208;BME280;3137;51.550;7.060;2023-08-12T04:15:41;101301.38;;;20.01;92.51
6208;BME280;3137;51.550;7.060;2023-08-12T04:18:07;101287.97;;;19.99;92.63
6208;BME280;3137;51.550;7.060;2023-08-12T04:20:34;101280.44;;;19.95;92.89
6208;BME280;3137;51.550;7.060;2023-08-12T04:23:00;101284.41;;;19.92;92.84
6208;BME280;3137;51.550;7.060;2023-08-12T04:25:27;101280.66;;;19.93;92.55
6208;BME280;3137;51.550;7.060;2023-08-12T04:27:53;101274.16;;;19.94;92.29
6208;BME280;3137;51.550;7.060;2023-08-12T04:30:21;101281.09;;;19.97;92.80
6208;BME280;3137;51.550;7.060;2023-08-12T04:32:48;101273.78;;;19.97;92.52
6208;BME280;3137;51.550;7.060;2023-08-12T04:35:14;101271.06;;;19.97;92.36
6208;BME280;3137;51.550;7.060;2023-08-12T04:37:42;101255.81;;;19.96;92.36
6208;BME280;3137;51.550;7.060;2023-08-12T04:40:09;101254.97;;;19.96;92.43
6208;BME280;3137;51.550;7.060;2023-08-12T04:42:35;101252.06;;;19.97;93.00
6208;BME280;3137;51.550;7.060;2023-08-12T04:45:03;101246.63;;;19.97;92.80
6208;BME280;3137;51.550;7.060;2023-08-12T04:47:31;101247.69;;;19.96;92.53
6208;BME280;3137;51.550;7.060;2023-08-12T04:49:58;101242.44;;;19.95;92.47
6208;BME280;3137;51.550;7.060;2023-08-12T04:52:26;101242.44;;;19.95;92.46
6208;BME280;3137;51.550;7.060;2023-08-12T04:54:53;101243.09;;;19.97;92.91
6208;BME280;3137;51.550;7.060;2023-08-12T04:57:21;101243.28;;;19.95;92.54
6208;BME280;3137;51.550;7.060;2023-08-12T04:59:47;101236.56;;;19.91;93.05
6208;BME280;3137;51.550;7.060;2023-08-12T05:02:15;101239.28;;;19.91;92.73
6208;BME280;3137;51.550;7.060;2023-08-12T05:04:41;101232.84;;;19.92;92.63
6208;BME280;3137;51.550;7.060;2023-08-12T05:07:08;101240.56;;;19.95;93.20
6208;BME280;3137;51.550;7.060;2023-08-12T05:09:34;101235.78;;;19.97;92.59
6208;BME280;3137;51.550;7.060;2023-08-12T05:12:01;101237.47;;;19.98;92.18
6208;BME280;3137;51.550;7.060;2023-08-12T05:14:28;101229.09;;;20.00;92.73
6208;BME280;3137;51.550;7.060;2023-08-12T05:16:54;101226.63;;;19.98;92.77
6208;BME280;3137;51.550;7.060;2023-08-12T05:19:20;101232.66;;;20.00;93.34
6208;BME280;3137;51.550;7.060;2023-08-12T05:21:47;101234.97;;;20.03;92.94
6208;BME280;3137;51.550;7.060;2023-08-12T05:24:14;101226.44;;;20.06;93.34
6208;BME280;3137;51.550;7.060;2023-08-12T05:26:41;101228.75;;;20.10;93.34
6208;BME280;3137;51.550;7.060;2023-08-12T05:29:08;101237.31;;;20.13;93.28
6208;BME280;3137;51.550;7.060;2023-08-12T05:31:34;101232.53;;;20.15;93.52
6208;BME280;3137;51.550;7.060;2023-08-12T05:34:00;101231.28;;;20.18;93.35
6208;BME280;3137;51.550;7.060;2023-08-12T05:36:27;101226.50;;;20.20;93.53
6208;BME280;3137;51.550;7.060;2023-08-12T05:38:53;101230.88;;;20.21;93.29
6208;BME280;3137;51.550;7.060;2023-08-12T05:41:20;101225.44;;;20.21;93.08
6208;BME280;3137;51.550;7.060;2023-08-12T05:43:48;101229.66;;;20.23;93.53
6208;BME280;3137;51.550;7.060;2023-08-12T05:46:14;101224.22;;;20.23;92.80
6208;BME280;3137;51.550;7.060;2023-08-12T05:48:41;101221.50;;;20.23;92.99
6208;BME280;3137;51.550;7.060;2023-08-12T05:51:07;101218.97;;;20.22;92.76
6208;BME280;3137;51.550;7.060;2023-08-12T05:53:33;101218.34;;;20.20;93.21
6208;BME280;3137;51.550;7.060;2023-08-12T05:56:00;101222.72;;;20.21;93.21
6208;BME280;3137;51.550;7.060;2023-08-12T05:58:26;101218.34;;;20.20;93.25
6208;BME280;3137;51.550;7.060;2023-08-12T06:00:53;101212.94;;;20.20;93.21
6208;BME280;3137;51.550;7.060;2023-08-12T06:03:19;101210.84;;;20.22;92.79
6208;BME280;3137;51.550;7.060;2023-08-12T06:05:46;101212.50;;;20.23;92.67
6208;BME280;3137;51.550;7.060;2023-08-12T06:08:13;101210.66;;;20.23;92.99
6208;BME280;3137;51.550;7.060;2023-08-12T06:10:40;101202.50;;;20.23;92.85
6208;BME280;3137;51.550;7.060;2023-08-12T06:13:07;101208.13;;;20.22;93.44
6208;BME280;3137;51.550;7.060;2023-08-12T06:15:33;101200.81;;;20.22;93.37
6208;BME280;3137;51.550;7.060;2023-08-12T06:18:00;101198.28;;;20.21;92.85
6208;BME280;3137;51.550;7.060;2023-08-12T06:20:27;101205.81;;;20.19;92.83
6208;BME280;3137;51.550;7.060;2023-08-12T06:22:53;101205.81;;;20.19;93.31
6208;BME280;3137;51.550;7.060;2023-08-12T06:25:20;101209.38;;;20.19;92.96
6208;BME280;3137;51.550;7.060;2023-08-12T06:27:46;101204.97;;;20.18;93.12
6208;BME280;3137;51.550;7.060;2023-08-12T06:30:14;101195.34;;;20.16;92.93
6208;BME280;3137;51.550;7.060;2023-08-12T06:32:40;101207.88;;;20.17;93.20
6208;BME280;3137;51.550;7.060;2023-08-12T06:35:07;101195.56;;;20.14;93.11
6208;BME280;3137;51.550;7.060;2023-08-12T06:37:34;101209.75;;;20.16;93.19
6208;BME280;3137;51.550;7.060;2023-08-12T06:40:00;101200.16;;;20.14;93.38
6208;BME280;3137;51.550;7.060;2023-08-12T06:42:27;101203.28;;;20.11;93.33
6208;BME280;3137;51.550;7.060;2023-08-12T06:44:55;101200.56;;;20.11;92.64
6208;BME280;3137;51.550;7.060;2023-08-12T06:47:22;101201.41;;;20.11;92.84
6208;BME280;3137;51.550;7.060;2023-08-12T06:49:49;101197.19;;;20.08;92.95
6208;BME280;3137;51.550;7.060;2023-08-12T06:52:16;101192.19;;;20.05;93.01
6208;BME280;3137;51.550;7.060;2023-08-12T06:54:42;101185.91;;;20.05;92.98
6208;BME280;3137;51.550;7.060;2023-08-12T06:57:08;101183.19;;;20.05;93.38
6208;BME280;3137;51.550;7.060;2023-08-12T06:59:35;101181.50;;;20.04;93.32
6208;BME280;3137;51.550;7.060;2023-08-12T07:02:01;101174.88;;;20.06;92.99
6208;BME280;3137;51.550;7.060;2023-08-12T07:04:28;101180.28;;;20.06;92.75
6208;BME280;3137;51.550;7.060;2023-08-12T07:06:54;101171.50;;;20.04;92.87
6208;BME280;3137;51.550;7.060;2023-08-12T07:09:21;101167.09;;;20.03;92.63
6208;BME280;3137;51.550;7.060;2023-08-12T07:11:48;101164.63;;;20.02;92.70
6208;BME280;3137;51.550;7.060;2023-08-12T07:14:14;101163.97;;;20.00;92.84
6208;BME280;3137;51.550;7.060;2023-08-12T07:16:40;101161.25;;;20.00;93.11
6208;BME280;3137;51.550;7.060;2023-08-12T07:19:07;101161.06;;;20.01;93.14
6208;BME280;3137;51.550;7.060;2023-08-12T07:21:33;101173.97;;;19.99;93.29
6208;BME280;3137;51.550;7.060;2023-08-12T07:24:00;101173.78;;;20.01;93.13
6208;BME280;3137;51.550;7.060;2023-08-12T07:26:29;101183.00;;;20.06;93.17
6208;BME280;3137;51.550;7.060;2023-08-12T07:28:56;101174.03;;;20.06;92.91
6208;BME280;3137;51.550;7.060;2023-08-12T07:31:23;101169.22;;;20.08;93.00
6208;BME280;3137;51.550;7.060;2023-08-12T07:33:49;101170.47;;;20.12;92.84
6208;BME280;3137;51.550;7.060;2023-08-12T07:36:16;101173.00;;;20.07;92.50
6208;BME280;3137;51.550;7.060;2023-08-12T07:38:42;101173.81;;;20.07;92.67
6208;BME280;3137;51.550;7.060;2023-08-12T07:41:09;101173.00;;;20.07;92.40
6208;BME280;3137;51.550;7.060;2023-08-12T07:43:35;101175.06;;;20.12;92.93
6208;BME280;3137;51.550;7.060;2023-08-12T07:46:02;101184.06;;;20.12;92.51
6208;BME280;3137;51.550;7.060;2023-08-12T07:48:35;101186.34;;;20.08;93.24
6208;BME280;3137;51.550;7.060;2023-08-12T07:51:02;101177.16;;;20.10;92.73
6208;BME280;3137;51.550;7.060;2023-08-12T07:53:29;101180.31;;;20.13;92.93
6208;BME280;3137;51.550;7.060;2023-08-12T07:55:55;101176.34;;;20.16;92.19
6208;BME280;3137;51.550;7.060;2023-08-12T07:58:22;101174.69;;;20.15;92.61
6208;BME280;3137;51.550;7.060;2023-08-12T08:00:52;101162.16;;;20.14;92.34
6208;BME280;3137;51.550;7.060;2023-08-12T08:03:19;101165.09;;;20.19;92.51
6208;BME280;3137;51.550;7.060;2023-08-12T08:05:46;101155.69;;;20.21;92.41
6208;BME280;3137;51.550;7.060;2023-08-12T08:08:13;101158.63;;;20.26;92.44
6208;BME280;3137;51.550;7.060;2023-08-12T08:10:40;101158.06;;;20.31;92.25
6208;BME280;3137;51.550;7.060;2023-08-12T08:13:06;101151.13;;;20.28;92.15
6208;BME280;3137;51.550;7.060;2023-08-12T08:15:32;101156.13;;;20.25;92.18
6208;BME280;3137;51.550;7.060;2023-08-12T08:17:59;101154.03;;;20.27;91.95
6208;BME280;3137;51.550;7.060;2023-08-12T08:20:28;101154.25;;;20.25;91.96
6208;BME280;3137;51.550;7.060;2023-08-12T08:22:55;101156.13;;;20.25;91.61
6208;BME280;3137;51.550;7.060;2023-08-12T08:25:21;101154.66;;;20.29;91.50
6208;BME280;3137;51.550;7.060;2023-08-12T08:27:48;101157.78;;;20.26;91.85
6208;BME280;3137;51.550;7.060;2023-08-12T08:30:14;101159.47;;;20.27;91.68
6208;BME280;3137;51.550;7.060;2023-08-12T08:32:41;101159.28;;;20.28;91.47
6208;BME280;3137;51.550;7.060;2023-08-12T08:35:07;101158.06;;;20.31;91.44
6208;BME280;3137;51.550;7.060;2023-08-12T08:37:34;101152.63;;;20.31;91.31
6208;BME280;3137;51.550;7.060;2023-08-12T08:40:00;101144.91;;;20.34;91.85
6208;BME280;3137;51.550;7.060;2023-08-12T08:42:31;101149.50;;;20.34;91.78
6208;BME280;3137;51.550;7.060;2023-08-12T08:45:00;101154.72;;;20.35;91.39
6208;BME280;3137;51.550;7.060;2023-08-12T08:47:28;101149.06;;;20.37;91.17
6208;BME280;3137;51.550;7.060;2023-08-12T08:49:55;101156.19;;;20.38;91.38
6208;BME280;3137;51.550;7.060;2023-08-12T08:52:25;101156.63;;;20.48;91.40
6208;BME280;3137;51.550;7.060;2023-08-12T08:54:52;101148.91;;;20.45;91.20
6208;BME280;3137;51.550;7.060;2023-08-12T08:57:19;101155.38;;;20.44;91.31
6208;BME280;3137;51.550;7.060;2023-08-12T08:59:50;101148.69;;;20.46;91.58
6208;BME280;3137;51.550;7.060;2023-08-12T09:02:24;101162.91;;;20.48;91.42
6208;BME280;3137;51.550;7.060;2023-08-12T09:04:52;101154.56;;;20.57;91.29
6208;BME280;3137;51.550;7.060;2023-08-12T09:07:20;101151.00;;;20.56;91.32
6208;BME280;3137;51.550;7.060;2023-08-12T09:09:48;101153.91;;;20.55;91.16
6208;BME280;3137;51.550;7.060;2023-08-12T09:12:19;101158.31;;;20.56;91.30
6208;BME280;3137;51.550;7.060;2023-08-12T09:14:46;101160.63;;;20.59;91.18
6208;BME280;3137;51.550;7.060;2023-08-12T09:17:14;101161.03;;;20.56;91.61
6208;BME280;3137;51.550;7.060;2023-08-12T09:19:40;101158.34;;;20.69;90.70
6208;BME280;3137;51.550;7.060;2023-08-12T09:22:07;101159.16;;;20.63;91.02
6208;BME280;3137;51.550;7.060;2023-08-12T09:24:36;101165.84;;;20.60;90.86
6208;BME280;3137;51.550;7.060;2023-08-12T09:27:03;101170.44;;;20.60;90.76
6208;BME280;3137;51.550;7.060;2023-08-12T09:29:34;101168.16;;;20.63;90.67
6208;BME280;3137;51.550;7.060;2023-08-12T09:32:12;101160.84;;;20.64;90.83
6208;BME280;3137;51.550;7.060;2023-08-12T09:34:50;101162.53;;;20.65;90.00
6208;BME280;3137;51.550;7.060;2023-08-12T09:37:18;101156.25;;;20.58;90.66
6208;BME280;3137;51.550;7.060;2023-08-12T09:39:45;101150.41;;;20.61;90.34
6208;BME280;3137;51.550;7.060;2023-08-12T09:42:12;101152.28;;;20.60;90.65
6208;BME280;3137;51.550;7.060;2023-08-12T09:44:40;101153.94;;;20.61;90.27
6208;BME280;3137;51.550;7.060;2023-08-12T09:47:07;101149.13;;;20.63;90.67
6208;BME280;3137;51.550;7.060;2023-08-12T09:49:38;101149.53;;;20.67;90.41
6208;BME280;3137;51.550;7.060;2023-08-12T09:52:06;101154.16;;;20.66;90.48
6208;BME280;3137;51.550;7.060;2023-08-12T09:54:34;101160.88;;;20.70;90.15
6208;BME280;3137;51.550;7.060;2023-08-12T09:57:04;101161.91;;;20.69;90.08
6208;BME280;3137;51.550;7.060;2023-08-12T09:59:35;101166.91;;;20.72;90.33
6208;BME280;3137;51.550;7.060;2023-08-12T10:02:04;101170.25;;;20.68;90.27
6208;BME280;3137;51.550;7.060;2023-08-12T10:04:37;101164.00;;;20.74;89.92
6208;BME280;3137;51.550;7.060;2023-08-12T10:07:06;101165.66;;;20.68;90.16
6208;BME280;3137;51.550;7.060;2023-08-12T10:09:32;101166.69;;;20.67;90.33
6208;BME280;3137;51.550;7.060;2023-08-12T10:12:00;101165.22;;;20.65;90.31
6208;BME280;3137;51.550;7.060;2023-08-12T10:14:27;101164.59;;;20.63;90.76
6208;BME280;3137;51.550;7.060;2023-08-12T10:16:54;101163.13;;;20.60;90.60
6208;BME280;3137;51.550;7.060;2023-08-12T10:19:31;101167.75;;;20.73;90.89
6208;BME280;3137;51.550;7.060;2023-08-12T10:21:58;101172.34;;;20.72;91.04
6208;BME280;3137;51.550;7.060;2023-08-12T10:24:29;101174.22;;;20.72;91.39
6208;BME280;3137;51.550;7.060;2023-08-12T10:26:55;101172.56;;;20.84;91.21
6208;BME280;3137;51.550;7.060;2023-08-12T10:29:25;101174.84;;;20.80;91.64
6208;BME280;3137;51.550;7.060;2023-08-12T10:31:51;101180.94;;;20.82;91.88
6208;BME280;3137;51.550;7.060;2023-08-12T10:34:22;101174.69;;;20.95;92.50
6208;BME280;3137;51.550;7.060;2023-08-12T10:36:56;101173.41;;;20.97;91.59
6208;BME280;3137;51.550;7.060;2023-08-12T10:39:32;101168.84;;;21.05;92.82
6208;BME280;3137;51.550;7.060;2023-08-12T10:41:59;101169.25;;;21.08;91.85
6208;BME280;3137;51.550;7.060;2023-08-12T10:44:40;101167.59;;;21.14;92.34
6208;BME280;3137;51.550;7.060;2023-08-12T10:47:10;101168.81;;;21.11;93.19
6208;BME280;3137;51.550;7.060;2023-08-12T10:49:48;101167.16;;;21.23;91.47
6208;BME280;3137;51.550;7.060;2023-08-12T10:52:41;101170.53;;;21.25;91.19
6208;BME280;3137;51.550;7.060;2023-08-12T10:55:24;101167.56;;;21.27;91.83
6208;BME280;3137;51.550;7.060;2023-08-12T10:57:55;101167.97;;;21.50;90.57
6208;BME280;3137;51.550;7.060;2023-08-12T11:00:25;101163.81;;;21.41;89.04
6208;BME280;3137;51.550;7.060;2023-08-12T11:02:54;101163.78;;;21.48;89.34
6208;BME280;3137;51.550;7.060;2023-08-12T11:05:21;101163.13;;;21.52;88.74
6208;BME280;3137;51.550;7.060;2023-08-12T11:07:59;101160.41;;;21.52;88.06
6208;BME280;3137;51.550;7.060;2023-08-12T11:10:30;101160.03;;;21.42;88.35
6208;BME280;3137;51.550;7.060;2023-08-12T11:13:01;101151.47;;;21.38;88.05
6208;BME280;3137;51.550;7.060;2023-08-12T11:15:39;101154.81;;;21.34;88.28
6208;BME280;3137;51.550;7.060;2023-08-12T11:18:13;101148.31;;;21.41;88.65
6208;BME280;3137;51.550;7.060;2023-08-12T11:20:40;101152.06;;;21.40;88.98
6208;BME280;3137;51.550;7.060;2023-08-12T11:23:08;101148.06;;;21.56;88.03
6208;BME280;3137;51.550;7.060;2023-08-12T11:25:37;101147.66;;;21.53;88.36
6208;BME280;3137;51.550;7.060;2023-08-12T11:28:04;101147.22;;;21.56;88.59
6208;BME280;3137;51.550;7.060;2023-08-12T11:30:31;101146.66;;;21.47;88.77
6208;BME280;3137;51.550;7.060;2023-08-12T11:32:59;101145.38;;;21.50;88.80
6208;BME280;3137;51.550;7.060;2023-08-12T11:35:27;101133.69;;;21.42;88.96
6208;BME280;3137;51.550;7.060;2023-08-12T11:37:56;101134.06;;;21.39;89.57
6208;BME280;3137;51.550;7.060;2023-08-12T11:40:24;101128.59;;;21.53;88.85
6208;BME280;3137;51.550;7.060;2023-08-12T11:42:52;101144.69;;;21.67;88.44
6208;BME280;3137;51.550;7.060;2023-08-12T11:45:20;101135.03;;;21.78;88.14
6208;BME280;3137;51.550;7.060;2023-08-12T11:47:48;101131.00;;;21.87;88.38
6208;BME280;3137;51.550;7.060;2023-08-12T11:50:24;101131.19;;;22.05;87.25
6208;BME280;3137;51.550;7.060;2023-08-12T11:52:52;101128.25;;;22.00;87.11
6208;BME280;3137;51.550;7.060;2023-08-12T11:55:19;101124.91;;;21.98;86.67
6208;BME280;3137;51.550;7.060;2023-08-12T11:57:45;101128.47;;;21.99;85.97
6208;BME280;3137;51.550;7.060;2023-08-12T12:00:13;101126.63;;;21.93;86.24
6208;BME280;3137;51.550;7.060;2023-08-12T12:02:47;101124.31;;;21.96;85.45
6208;BME280;3137;51.550;7.060;2023-08-12T12:05:16;101132.91;;;21.86;85.93
6208;BME280;3137;51.550;7.060;2023-08-12T12:07:43;101156.41;;;21.74;85.67
6208;BME280;3137;51.550;7.060;2023-08-12T12:10:30;101140.97;;;21.55;87.89
6208;BME280;3137;51.550;7.060;2023-08-12T12:13:01;101152.09;;;21.47;87.81
6208;BME280;3137;51.550;7.060;2023-08-12T12:15:28;101152.72;;;21.42;88.06
6208;BME280;3137;51.550;7.060;2023-08-12T12:17:54;101154.19;;;21.19;87.24
6208;BME280;3137;51.550;7.060;2023-08-12T12:20:21;101144.53;;;21.10;87.25
6208;BME280;3137;51.550;7.060;2023-08-12T12:22:48;101144.16;;;21.00;87.72
6208;BME280;3137;51.550;7.060;2023-08-12T12:25:16;101136.84;;;21.00;88.17
6208;BME280;3137;51.550;7.060;2023-08-12T12:27:45;101129.28;;;21.02;88.21
6208;BME280;3137;51.550;7.060;2023-08-12T12:30:13;101130.75;;;20.98;88.14
6208;BME280;3137;51.550;7.060;2023-08-12T12:32:40;101132.81;;;21.09;88.56
6208;BME280;3137;51.550;7.060;2023-08-12T12:35:07;101141.81;;;21.10;88.09
6208;BME280;3137;51.550;7.060;2023-08-12T12:37:34;101134.53;;;21.04;88.54
6208;BME280;3137;51.550;7.060;2023-08-12T12:40:02;101148.34;;;21.09;88.00
6208;BME280;3137;51.550;7.060;2023-08-12T12:42:30;101143.91;;;21.01;88.63
6208;BME280;3137;51.550;7.060;2023-08-12T12:44:56;101142.47;;;20.98;88.60
6208;BME280;3137;51.550;7.060;2023-08-12T12:47:23;101154.38;;;20.97;89.50
6208;BME280;3137;51.550;7.060;2023-08-12T12:49:49;101153.34;;;20.98;89.05
6208;BME280;3137;51.550;7.060;2023-08-12T12:52:16;101159.59;;;20.79;89.43
6208;BME280;3137;51.550;7.060;2023-08-12T12:54:42;101156.06;;;20.79;89.47
6208;BME280;3137;51.550;7.060;2023-08-12T12:57:09;101160.88;;;20.70;89.31
6208;BME280;3137;51.550;7.060;2023-08-12T12:59:35;101167.53;;;20.61;89.99
6208;BME280;3137;51.550;7.060;2023-08-12T13:02:02;101166.28;;;20.57;90.46
6208;BME280;3137;51.550;7.060;2023-08-12T13:04:28;101178.19;;;20.56;90.84
6208;BME280;3137;51.550;7.060;2023-08-12T13:06:55;101174.44;;;20.57;91.07
6208;BME280;3137;51.550;7.060;2023-08-12T13:09:21;101178.78;;;20.58;90.84
6208;BME280;3137;51.550;7.060;2023-08-12T13:11:48;101171.69;;;20.50;91.31
6208;BME280;3137;51.550;7.060;2023-08-12T13:14:14;101172.94;;;20.48;91.32